Flint, MI

3:35 AM EST on December 29, 2014 (GMT -0500)
WestKirk Weather | Change Station
CLOSE
Current Station
Personal Weather Station
Location: Flint, MI
Elevation: 768 ft
Nearby Weather Stations

Elev 768 ft 43.00 °N, 83.80 °W | Updated 1 minute ago

Overcast
Overcast
26.6 °F
Feels Like 27 °F
N
1.7
Wind Variable Wind from NNW

Today
High -- | Low -- °F
--% Chance of Precip.
Yesterday
High -- | Low -- °F
Precip. -- in
8:05 AM 5:08 PM
First Quarter, 56% visible
Pressure 30.27 in
Visibility 10.0 miles
Clouds Overcast 3600 ft
Windchill 27 °F
Dew Point 15 °F
Humidity 62%
Rainfall 0.00 in
Snow Depth Not available.
UV 0 out of 12
Pollen .10 out of 12
Air Quality Not available.
Flu Activity Not available.
METAR KFNT 290753Z AUTO 33007KT 10SM OVC036 M02/M09 A3024 RMK AO2 SLP249 T10171094

More Conditions Fewer Conditions

Pressure 30.27 in
Visibility 10.0 miles
Clouds Overcast 3600 ft
Windchill 27 °F
Dew Point 15 °F
Humidity 62%
Rainfall 0.00 in
Snow Depth Not available.
UV 0 out of 12
Pollen .10 out of 12
Air Quality Not available.
Flu Activity Not available.
METAR KFNT 290753Z AUTO 33007KT 10SM OVC036 M02/M09 A3024 RMK AO2 SLP249 T10171094

More Conditions Fewer Conditions

10-Day Weather Forecast

Almanac

Astronomy

Dec. 29, 2014 Rise Set
Actual Time
Civil Twilight
Nautical Twilight
Astronomical Twilight
Moon
Length of Visible Light
Length of Day
Tomorrow will be .
, % of the Moon is Illuminated

Today's Extremes

State Highs State Lows

Community

WunderPhotos

Upload Photos

1,781,558 photos uploaded!

WunderBlogs® & News

Nearby

Air Quality

  Air Quality AQ Index Pollutant
Not available.

Snow Depth

Station Depth Elevation

Earthquake Activity

City Distance Mag. Time & Date
Minimum magnitude displayed is 2.5.

Coastal Water Temperatures

Place Temperature

Nearby Weather Stations